createdAt,value
2023-02-02T00:32:18.439Z,36.63
2023-02-02T00:33:18.334Z,36.64
2023-02-02T00:34:18.266Z,36.64
2023-02-02T00:35:18.099Z,36.64
2023-02-02T00:36:18.003Z,36.65
2023-02-02T00:37:17.898Z,36.63
2023-02-02T00:38:17.779Z,36.63
2023-02-02T00:39:17.677Z,36.64
2023-02-02T00:40:17.566Z,36.64
2023-02-02T00:41:17.465Z,36.66
2023-02-02T00:42:17.360Z,36.64
2023-02-02T00:43:17.259Z,36.66
2023-02-02T00:44:17.121Z,36.63
2023-02-02T00:45:17.018Z,36.66
2023-02-02T00:46:16.907Z,36.63
2023-02-02T00:47:16.810Z,36.65
2023-02-02T00:48:16.691Z,36.63
2023-02-02T00:49:16.593Z,36.62
2023-02-02T00:50:16.484Z,36.61
2023-02-02T00:51:16.373Z,36.63
2023-02-02T00:52:16.263Z,36.63
2023-02-02T00:53:16.166Z,36.63
2023-02-02T00:54:16.066Z,36.62
2023-02-02T00:55:15.958Z,36.63
2023-02-02T00:56:15.847Z,36.64
2023-02-02T00:57:15.928Z,36.62
2023-02-02T00:58:15.638Z,36.62
2023-02-02T00:59:15.551Z,36.63
2023-02-02T01:00:15.424Z,36.60
2023-02-02T01:01:15.340Z,36.63
2023-02-02T01:02:15.235Z,36.60
2023-02-02T01:03:15.115Z,36.60
2023-02-02T01:04:15.015Z,36.62
2023-02-02T01:05:14.888Z,36.62
2023-02-02T01:06:14.802Z,36.60
2023-02-02T01:07:14.675Z,36.61
2023-02-02T01:08:14.566Z,36.61
2023-02-02T01:09:14.469Z,36.61
2023-02-02T02:28:05.954Z,36.50
2023-02-02T02:29:05.841Z,36.52
2023-02-02T02:30:05.729Z,36.51
2023-02-02T02:31:05.706Z,36.48
2023-02-02T02:32:05.507Z,36.50
2023-02-02T02:33:05.402Z,36.49
2023-02-02T02:34:05.295Z,36.50
2023-02-02T02:35:05.195Z,36.48
2023-02-02T02:36:05.072Z,36.48
2023-02-02T02:37:04.971Z,36.49
2023-02-02T02:38:04.862Z,36.46
2023-02-02T02:39:04.768Z,36.44
2023-02-02T02:40:04.687Z,36.44
2023-02-02T02:41:04.521Z,36.43
2023-02-02T03:01:01.982Z,36.09
2023-02-02T03:02:01.806Z,36.09
2023-02-02T03:03:01.663Z,36.07
2023-02-02T03:04:01.550Z,36.06
2023-02-02T03:05:01.378Z,36.05
2023-02-02T03:06:01.239Z,36.03
2023-02-02T03:07:01.105Z,36.01
2023-02-02T03:08:00.971Z,36.01
2023-02-02T03:09:00.841Z,36.01
2023-02-02T03:10:00.697Z,36.00
2023-02-02T03:11:00.565Z,35.97
2023-02-02T03:12:00.422Z,35.97
2023-02-02T03:13:00.279Z,35.97
2023-02-02T03:14:00.138Z,35.96
2023-02-02T03:14:59.995Z,35.94
2023-02-02T03:15:59.952Z,35.93
2023-02-02T03:16:59.720Z,35.92
2023-02-02T03:17:59.572Z,35.90
2023-02-02T03:18:59.437Z,35.89
2023-02-02T03:19:59.293Z,35.89
2023-02-02T03:20:59.152Z,35.89
2023-02-02T03:21:58.997Z,35.87
2023-02-02T03:22:58.856Z,35.84
2023-02-02T03:23:58.723Z,35.84
2023-02-02T03:24:58.566Z,35.84
2023-02-02T03:25:58.414Z,35.79
2023-02-02T03:26:58.294Z,35.81
2023-02-02T03:27:58.127Z,35.78
2023-02-02T03:28:58.027Z,35.77
2023-02-02T03:29:58.819Z,35.80
2023-02-02T03:30:57.736Z,35.78
2023-02-02T03:31:57.432Z,35.78
2023-02-02T03:32:57.263Z,35.76
2023-02-02T03:33:57.078Z,35.77
2023-02-02T03:34:56.894Z,35.79
2023-02-02T03:35:56.725Z,35.79
2023-02-02T03:36:56.537Z,35.81
2023-02-02T03:37:56.361Z,35.80
2023-02-02T03:38:56.175Z,35.81
2023-02-02T03:39:55.996Z,35.81
2023-02-02T03:40:55.819Z,35.80
2023-02-02T03:41:55.625Z,35.80
2023-02-02T03:42:55.456Z,35.81
2023-02-02T03:43:55.268Z,35.82
2023-02-02T03:44:55.083Z,35.79
2023-02-02T03:45:54.911Z,35.82
2023-02-02T03:46:54.725Z,35.81
2023-02-02T03:47:54.556Z,35.80
2023-02-02T04:38:47.127Z,35.90
2023-02-02T04:39:46.976Z,35.88
2023-02-02T04:40:46.833Z,35.89
2023-02-02T04:41:46.682Z,35.87
2023-02-02T04:42:46.549Z,35.88
2023-02-02T04:43:46.403Z,35.90
2023-02-02T04:44:46.291Z,35.87
2023-02-02T04:45:46.158Z,35.86
2023-02-02T04:46:45.962Z,35.85
2023-02-02T04:47:45.808Z,35.87
2023-02-02T04:48:45.657Z,35.87
2023-02-02T04:49:45.506Z,35.86
2023-02-02T04:50:45.360Z,35.85
2023-02-02T04:51:45.210Z,35.85
2023-02-02T04:52:45.072Z,35.87
2023-02-02T04:53:44.915Z,35.87
2023-02-02T04:54:44.767Z,35.85
2023-02-02T04:55:44.616Z,35.84
2023-02-02T04:56:44.465Z,35.84
2023-02-02T05:55:35.948Z,35.76
2023-02-02T05:56:35.813Z,35.76
2023-02-02T05:57:35.651Z,35.78
2023-02-02T05:58:35.520Z,35.77
2023-02-02T05:59:35.352Z,35.78
2023-02-02T06:00:35.207Z,35.79
2023-02-02T06:01:35.049Z,35.75
2023-02-02T06:02:34.901Z,35.77
2023-02-02T06:03:34.837Z,35.75
2023-02-02T06:04:34.609Z,35.78
2023-02-02T06:05:34.463Z,35.76
2023-02-02T06:49:27.869Z,40.66
2023-02-02T06:50:27.727Z,40.96
2023-02-02T06:51:27.597Z,41.02
2023-02-02T06:52:27.426Z,41.50
2023-02-02T06:54:27.141Z,41.45
2023-02-02T06:55:27.276Z,41.59
2023-02-02T06:56:26.844Z,41.62
2023-02-02T06:57:26.689Z,41.71
2023-02-02T06:58:26.540Z,41.99
2023-02-02T06:59:27.090Z,41.97
2023-02-02T07:00:26.243Z,41.96
2023-02-02T07:01:26.108Z,42.00
2023-02-02T07:02:25.938Z,42.34
2023-02-02T07:03:25.760Z,42.45
2023-02-02T07:04:25.596Z,42.47
2023-02-02T07:05:26.264Z,42.66
2023-02-02T07:06:25.271Z,42.75
2023-02-02T07:07:25.124Z,42.81
2023-02-02T07:08:24.957Z,43.08
2023-02-02T07:09:24.796Z,43.15
2023-02-02T07:11:13.768Z,43.17
2023-02-02T07:11:25.475Z,43.70
2023-02-02T07:17:24.838Z,44.61
2023-02-02T07:50:17.510Z,46.82
2023-02-02T07:52:17.181Z,47.10
2023-02-02T07:53:17.028Z,47.14
2023-02-02T07:54:16.874Z,47.33
2023-02-02T07:55:16.714Z,47.16
2023-02-02T07:56:16.570Z,47.48
2023-02-02T07:57:16.392Z,47.57
2023-02-02T07:58:16.239Z,46.61
2023-02-02T07:59:16.088Z,41.68
2023-02-02T08:00:15.959Z,40.60
2023-02-02T08:01:15.841Z,39.59
2023-02-02T08:02:15.747Z,38.52
2023-02-02T08:03:15.607Z,38.44
2023-02-02T08:04:15.344Z,38.46
2023-02-02T08:06:15.037Z,38.42
2023-02-02T08:07:15.155Z,37.15
2023-02-02T08:08:14.703Z,36.63
2023-02-02T08:09:14.551Z,36.48
2023-02-02T08:18:13.354Z,38.59
2023-02-02T08:19:13.194Z,38.54
2023-02-02T08:20:13.031Z,38.69
2023-02-02T08:21:12.864Z,38.62
2023-02-02T08:22:12.685Z,38.71
2023-02-02T08:23:12.516Z,38.69
2023-02-02T08:24:12.360Z,38.83
2023-02-02T08:25:13.093Z,38.77
2023-02-02T08:26:12.005Z,38.80
2023-02-02T08:27:11.837Z,38.82
2023-02-02T08:28:11.646Z,38.86
2023-02-02T08:29:11.457Z,38.87
2023-02-02T08:30:11.281Z,38.85
2023-02-02T08:31:11.140Z,38.85
2023-02-02T08:32:10.927Z,38.89
2023-02-02T08:33:10.763Z,38.87
2023-02-02T08:34:10.607Z,38.91
2023-02-02T08:35:10.409Z,38.95
2023-02-02T08:36:10.238Z,38.99
2023-02-02T08:37:10.056Z,38.98
2023-02-02T08:38:09.884Z,38.98
2023-02-02T08:39:09.713Z,38.99
2023-02-02T08:40:10.203Z,39.06
2023-02-02T08:41:09.367Z,39.07
2023-02-02T08:42:09.189Z,39.16
2023-02-02T08:43:09.015Z,39.09
2023-02-02T08:44:11.201Z,39.08
2023-02-02T08:46:02.922Z,39.03
2023-02-02T08:46:09.794Z,39.10
2023-02-02T08:47:08.591Z,39.13
2023-02-02T08:48:12.167Z,39.10
2023-02-02T08:49:08.184Z,39.15
2023-02-02T08:50:08.004Z,39.17
2023-02-02T08:51:07.818Z,39.16
2023-02-02T08:52:07.625Z,39.18
2023-02-02T08:53:07.434Z,39.17
2023-02-02T08:54:07.252Z,39.18
2023-02-02T08:55:07.077Z,39.21
2023-02-02T08:56:06.914Z,39.18
2023-02-02T08:57:06.703Z,39.22
2023-02-02T08:58:06.516Z,39.22
2023-02-02T08:59:06.332Z,39.22
2023-02-02T09:00:06.174Z,39.22
2023-02-02T09:01:06.039Z,39.21
2023-02-02T09:02:05.843Z,39.20
2023-02-02T09:03:05.589Z,39.23
2023-02-02T09:04:05.420Z,39.18
2023-02-02T09:05:05.278Z,39.19
2023-02-02T09:06:05.050Z,39.20
2023-02-02T09:07:04.888Z,39.17
2023-02-02T09:08:04.690Z,39.18
2023-02-02T09:09:04.502Z,39.19
2023-02-02T09:10:04.317Z,39.17
2023-02-02T09:11:04.653Z,39.16
2023-02-02T09:12:03.950Z,39.14
2023-02-02T09:13:03.770Z,38.24
2023-02-02T09:14:03.566Z,36.49
2023-02-02T09:15:03.392Z,34.58
2023-02-02T09:16:03.218Z,33.52
2023-02-02T09:17:03.059Z,32.48
2023-02-02T09:18:02.889Z,32.37
2023-02-02T09:19:02.752Z,32.37
2023-02-02T09:20:02.595Z,32.50
2023-02-02T09:21:02.462Z,32.93
2023-02-02T09:22:02.298Z,33.83
2023-02-02T09:23:02.172Z,33.61
2023-02-02T09:24:01.998Z,33.85
2023-02-02T09:25:02.010Z,34.61
2023-02-02T09:26:01.707Z,34.01
2023-02-02T09:27:01.609Z,33.41
2023-02-02T09:28:01.396Z,33.31
2023-02-02T09:29:01.246Z,32.88
2023-02-02T09:30:01.177Z,32.62
2023-02-02T09:31:00.987Z,32.56
2023-02-02T09:32:00.835Z,32.62
2023-02-02T09:33:00.669Z,32.32
2023-02-02T09:34:00.623Z,31.97
2023-02-02T09:35:00.529Z,31.58
2023-02-02T09:36:00.404Z,31.46
2023-02-02T09:37:00.336Z,31.54
2023-02-02T09:38:00.259Z,31.59
2023-02-02T09:39:00.169Z,31.54
2023-02-02T09:40:00.653Z,31.64
2023-02-02T09:41:02.655Z,31.29
2023-02-02T09:41:59.830Z,31.42
2023-02-02T09:42:59.681Z,31.37
2023-02-02T09:43:59.534Z,31.44
2023-02-02T09:44:59.415Z,31.43
2023-02-02T09:45:59.268Z,31.31
2023-02-02T09:46:59.124Z,31.14
2023-02-02T09:47:58.981Z,31.17
2023-02-02T09:48:58.845Z,31.14
2023-02-02T09:49:58.688Z,31.04
2023-02-02T09:50:58.557Z,30.99
2023-02-02T09:51:58.423Z,30.94
2023-02-02T09:52:58.278Z,30.87
2023-02-02T09:53:58.141Z,30.88
2023-02-02T09:54:58.001Z,30.90
2023-02-02T09:55:57.857Z,30.92
2023-02-02T09:56:57.724Z,30.89
2023-02-02T09:57:57.589Z,30.77
2023-02-02T09:59:02.169Z,30.90
2023-02-02T09:59:58.314Z,30.83
2023-02-02T10:00:57.200Z,30.69
2023-02-02T10:01:57.040Z,30.74
2023-02-02T10:02:56.901Z,30.90
2023-02-02T10:03:56.814Z,30.95
2023-02-02T10:04:56.689Z,30.93
2023-02-02T10:05:56.492Z,30.93
2023-02-02T10:06:56.354Z,30.95
2023-02-02T10:07:56.210Z,30.88
2023-02-02T10:08:56.066Z,30.78
2023-02-02T10:09:55.931Z,30.72
2023-02-02T10:10:55.779Z,30.66
2023-02-02T10:11:55.647Z,30.63
2023-02-02T10:12:55.515Z,30.58
2023-02-02T10:13:55.411Z,30.61
2023-02-02T10:14:55.342Z,30.54
2023-02-02T10:15:55.184Z,30.49
2023-02-02T10:16:54.943Z,30.59
2023-02-02T10:17:54.831Z,30.70
2023-02-02T10:18:54.666Z,30.72
2023-02-02T10:19:54.529Z,30.86
2023-02-02T17:07:37.801Z,38.47
2023-02-02T17:36:37.445Z,38.40
2023-02-02T18:39:36.224Z,38.24
2023-02-02T18:40:36.215Z,38.26
2023-02-02T18:41:36.173Z,38.27
2023-02-02T18:42:36.197Z,38.22
2023-02-02T18:43:36.126Z,38.24
2023-02-02T18:44:36.101Z,38.24
2023-02-02T18:45:36.094Z,38.26
2023-02-02T18:46:36.092Z,38.26
2023-02-02T18:47:36.034Z,38.25
2023-02-02T18:48:35.998Z,38.23
2023-02-02T18:49:36.482Z,38.25
2023-02-02T18:50:35.960Z,38.25
2023-02-02T18:51:35.943Z,38.22
2023-02-02T18:52:35.943Z,38.22
2023-02-02T18:53:35.909Z,38.21
2023-02-02T18:54:35.890Z,38.23
2023-02-02T18:55:35.878Z,38.21
2023-02-02T18:56:35.856Z,38.20
2023-02-02T18:57:35.837Z,38.22
2023-02-02T18:58:35.822Z,38.22
2023-02-02T18:59:35.803Z,38.19
2023-02-02T19:00:35.791Z,38.20
2023-02-02T19:01:35.843Z,38.18
2023-02-02T19:02:35.729Z,38.17
2023-02-02T19:03:35.724Z,38.17
2023-02-02T19:04:35.682Z,38.18
2023-02-02T19:05:35.689Z,38.18
2023-02-02T19:06:35.642Z,38.17
2023-02-02T19:07:35.611Z,38.18
2023-02-02T19:08:35.579Z,38.17
2023-02-02T19:09:35.556Z,38.18
2023-02-02T19:10:35.540Z,38.16
2023-02-02T19:11:35.519Z,38.18
2023-02-02T19:12:35.504Z,38.15
2023-02-02T19:13:35.467Z,38.16
2023-02-02T19:14:35.518Z,38.18
2023-02-02T19:15:35.431Z,38.15
2023-02-02T19:16:35.500Z,38.17
2023-02-02T19:17:35.366Z,38.14
2023-02-02T19:18:35.353Z,38.14
2023-02-02T19:19:35.312Z,38.13
2023-02-02T19:20:35.313Z,38.15
2023-02-02T19:21:35.308Z,38.16
2023-02-02T19:22:35.257Z,38.14
2023-02-02T19:23:35.230Z,38.15
2023-02-02T19:24:35.211Z,38.14
2023-02-02T19:25:35.225Z,38.15
2023-02-02T19:26:35.207Z,38.16
2023-02-02T19:27:35.139Z,38.14
2023-02-02T19:28:35.125Z,38.14
2023-02-02T19:29:35.112Z,38.11
2023-02-02T19:30:35.148Z,38.09
2023-02-02T19:31:35.536Z,38.11
2023-02-02T19:32:35.092Z,38.11
2023-02-02T19:33:35.071Z,38.13
2023-02-02T19:34:35.067Z,38.09
2023-02-02T19:35:35.060Z,38.13
2023-02-02T19:36:35.041Z,38.11
2023-02-02T19:37:35.029Z,38.09
2023-02-02T19:38:35.069Z,38.11
2023-02-02T19:39:35.002Z,38.09
2023-02-02T19:40:34.984Z,38.10
2023-02-02T19:41:34.977Z,38.08
2023-02-02T19:42:34.959Z,38.07
2023-02-02T19:43:34.945Z,38.08
2023-02-02T19:44:34.931Z,38.08
2023-02-02T19:45:34.925Z,38.08
2023-02-02T19:46:34.947Z,38.11
2023-02-02T19:47:34.887Z,38.09
2023-02-02T19:48:34.875Z,38.09
2023-02-02T20:07:34.529Z,38.04
2023-02-02T20:08:34.486Z,38.04
2023-02-02T20:14:34.311Z,38.01
2023-02-02T20:15:34.283Z,38.00
2023-02-02T20:16:34.275Z,38.03
2023-02-02T20:17:34.231Z,38.02
2023-02-02T20:18:34.213Z,38.01
2023-02-02T20:19:34.160Z,38.04
2023-02-02T20:20:34.144Z,38.02
2023-02-02T20:21:34.115Z,38.01
2023-02-02T20:22:34.087Z,38.01
2023-02-02T20:23:34.147Z,37.99
2023-02-02T20:24:34.043Z,37.99
2023-02-02T20:25:34.032Z,38.00
2023-02-02T20:26:34.003Z,37.99
2023-02-02T20:27:33.964Z,38.01
2023-02-02T20:28:33.936Z,37.98
2023-02-02T20:29:33.905Z,38.00
2023-02-02T20:30:33.882Z,37.99
2023-02-02T20:31:33.880Z,37.99
2023-02-02T20:32:33.819Z,37.97
2023-02-02T20:33:33.799Z,37.98
2023-02-02T20:34:33.775Z,37.96
2023-02-02T20:35:33.752Z,37.98
2023-02-02T20:36:33.747Z,37.97
2023-02-02T20:37:33.689Z,37.96
2023-02-02T20:38:33.656Z,37.96
2023-02-02T20:39:33.640Z,37.96
2023-02-02T20:40:33.602Z,37.96
2023-02-02T20:41:33.593Z,37.96
2023-02-02T20:42:33.537Z,37.96
2023-02-02T20:43:33.515Z,37.94
2023-02-02T20:44:33.505Z,37.94
2023-02-02T20:45:33.491Z,37.93
2023-02-02T20:46:33.437Z,37.96
2023-02-02T20:47:33.416Z,37.97
2023-02-02T20:48:33.402Z,37.95
2023-02-02T20:49:33.513Z,37.95
2023-02-02T20:50:33.385Z,37.94
2023-02-02T21:05:34.027Z,37.91
2023-02-02T21:16:34.059Z,37.88
2023-02-02T21:17:34.025Z,37.87
2023-02-02T21:32:33.533Z,37.83
2023-02-02T21:56:32.698Z,37.79
2023-02-02T23:46:31.566Z,37.58
2023-02-02T23:48:31.512Z,37.58
2023-02-02T23:49:31.508Z,37.58
2023-02-02T23:51:31.476Z,37.57
2023-02-02T23:52:31.474Z,37.55
2023-02-02T23:53:31.470Z,37.56
2023-02-02T23:54:31.456Z,37.58
2023-02-02T23:56:31.419Z,37.56
2023-02-02T23:57:31.417Z,37.55
2023-02-02T23:58:31.401Z,37.56
2023-02-02T23:59:31.405Z,37.53
